»·PEaware :: N8WG KSJC-KRNO

N8WG :: KSJC-KRNO

FLIGHT INFORMATION

Flight Status: Arrived
Operator: Privately registered:
United States
More flights under this callsign
Pilot: Austin M. (5128)
Aircraft: BEECH AIRCRAFT SUPER KING AIR COMMUTER
(BE20)
More flights by this aircraft type
Origin: KSJC Mineta San Jose Intl
United States
Destination: KRNO Reno/Tahoe Intl
United States
More flights between these airports :: More routes between these airports
Route: +LOUPE4 BMRNG ORRCA TARVR SPOON
File this flight plan on PilotEdge
Remarks:
Altitude:
(Current/Filed)
230ft
Speed:
(Current/Filed)
260kts
Departed: 11-Oct-17 07:19 PM
Arrived: 11-Oct-17 08:23 PM
Distance/Time
Traveled:
163nm/1:03
Distance/Time
To Go:
Arrived

Flight Plot

Page will automatically refresh every two minutes.


Map Options




Map Legend


Flown Route
Filed Route
Departure Airport
Arrival Airport
Navaid (VOR, NDB)
Fix

Horizontal Profiles

Position Reports

Time Latitude Longitude Heading Altitude Ground
Speed
11-Oct-17 18:58 37.358884 -121.931488 226 49ft 0kts
11-Oct-17 18:59 37.358884 -121.931488 226 49ft 0kts
11-Oct-17 19:00 37.358884 -121.931488 226 49ft 0kts
11-Oct-17 19:01 37.358884 -121.931488 226 49ft 0kts
11-Oct-17 19:02 37.358884 -121.931488 226 49ft 0kts
11-Oct-17 19:03 37.358884 -121.931488 226 49ft 0kts
11-Oct-17 19:04 37.358884 -121.931488 226 49ft 0kts
11-Oct-17 19:05 37.358884 -121.931488 226 49ft 0kts
11-Oct-17 19:06 37.358884 -121.931488 226 49ft 0kts
11-Oct-17 19:07 37.358884 -121.931488 226 49ft 0kts
11-Oct-17 19:08 37.358884 -121.931488 226 49ft 0kts
11-Oct-17 19:09 37.358884 -121.931488 226 49ft 0kts
11-Oct-17 19:10 37.358884 -121.931488 226 49ft 0kts
11-Oct-17 19:11 37.358884 -121.931488 226 49ft 0kts
11-Oct-17 19:12 37.358884 -121.931488 226 49ft 0kts
11-Oct-17 19:13 37.358884 -121.931488 226 49ft 0kts
11-Oct-17 19:14 37.358834 -121.931510 181 49ft 1kts
11-Oct-17 19:15 37.358866 -121.930185 121 49ft 7kts
11-Oct-17 19:16 37.357376 -121.928510 138 51ft 10kts
11-Oct-17 19:17 37.355557 -121.926466 139 53ft 12kts
11-Oct-17 19:18 37.354452 -121.924059 48 55ft 8kts
11-Oct-17 19:19 37.353676 -121.921986 138 56ft 14kts
11-Oct-17 19:20 37.352109 -121.919771 72 57ft 0kts
11-Oct-17 19:21 37.352109 -121.919771 72 57ft 0kts
11-Oct-17 19:22 37.352109 -121.919771 72 57ft 0kts
11-Oct-17 19:23 37.352109 -121.919769 71 57ft 0kts
11-Oct-17 19:24 37.356506 -121.923115 319 54ft 105kts
11-Oct-17 19:25 37.372261 -121.941993 317 1564ft 119kts
11-Oct-17 19:26 37.388075 -121.959366 319 2871ft 124kts
11-Oct-17 19:27 37.414355 -121.975498 16 4085ft 166kts
11-Oct-17 19:28 37.417642 -121.937621 132 5404ft 186kts
11-Oct-17 19:29 37.394534 -121.907911 135 6827ft 176kts
11-Oct-17 19:30 37.372577 -121.879946 135 8257ft 163kts
11-Oct-17 19:31 37.350721 -121.852002 135 9581ft 176kts
11-Oct-17 19:32 37.325660 -121.819844 135 10850ft 194kts
11-Oct-17 19:33 37.293617 -121.811062 232 12128ft 179kts
11-Oct-17 19:34 37.299125 -121.845660 312 13360ft 166kts
11-Oct-17 19:34 37.317114 -121.868556 312 14363ft 163kts
11-Oct-17 19:36 37.341636 -121.900384 311 15778ft 155kts
11-Oct-17 19:36 37.358710 -121.922638 310 16816ft 145kts
11-Oct-17 19:38 37.385510 -121.949810 354 18158ft 173kts
11-Oct-17 19:39 37.422191 -121.940677 344 19214ft 179kts
11-Oct-17 19:39 37.453711 -121.944800 342 20084ft 183kts
11-Oct-17 19:40 37.495558 -121.950103 341 21203ft 185kts
11-Oct-17 19:41 37.536879 -121.955269 340 22305ft 181kts
11-Oct-17 19:42 37.575972 -121.960348 339 22990ft 194kts
11-Oct-17 19:43 37.621110 -121.963668 3 22990ft 245kts
11-Oct-17 19:44 37.673300 -121.938004 10 22992ft 266kts
11-Oct-17 19:45 37.729511 -121.909853 10 22988ft 273kts
11-Oct-17 19:46 37.788666 -121.880367 10 22988ft 276kts
11-Oct-17 19:47 37.850066 -121.849778 10 22992ft 281kts
11-Oct-17 19:48 37.911249 -121.819223 10 22992ft 286kts
11-Oct-17 19:49 37.974891 -121.787364 10 22990ft 286kts
11-Oct-17 19:50 38.042026 -121.753738 10 22986ft 287kts
11-Oct-17 19:51 38.111804 -121.718702 10 22982ft 288kts
11-Oct-17 19:52 38.184107 -121.682314 11 22979ft 288kts
11-Oct-17 19:53 38.254470 -121.646839 10 22979ft 288kts
11-Oct-17 19:54 38.323590 -121.611910 11 22985ft 288kts
11-Oct-17 19:55 38.395023 -121.575763 10 22989ft 288kts
11-Oct-17 19:56 38.450762 -121.516623 66 23001ft 326kts
11-Oct-17 19:57 38.469836 -121.429283 70 22982ft 329kts
11-Oct-17 19:58 38.489409 -121.337671 70 22982ft 329kts
11-Oct-17 19:59 38.508100 -121.250518 70 22983ft 330kts
11-Oct-17 20:00 38.527714 -121.159365 71 22988ft 331kts
11-Oct-17 20:01 38.548237 -121.064268 76 23014ft 335kts
11-Oct-17 20:02 38.569850 -120.962148 80 23033ft 333kts
11-Oct-17 20:03 38.590443 -120.863348 81 23028ft 329kts
11-Oct-17 20:04 38.611861 -120.762095 81 23029ft 327kts
11-Oct-17 20:05 38.632575 -120.663044 81 23030ft 326kts
11-Oct-17 20:06 38.652458 -120.567484 81 23031ft 326kts
11-Oct-17 20:07 38.675082 -120.457849 81 22386ft 343kts
11-Oct-17 20:08 38.698733 -120.343151 80 21227ft 345kts
11-Oct-17 20:09 38.719663 -120.241344 81 20293ft 327kts
11-Oct-17 20:10 38.738306 -120.149773 81 19457ft 318kts
11-Oct-17 20:11 38.758469 -120.050268 80 18539ft 313kts
11-Oct-17 20:12 38.777453 -119.956184 80 17661ft 309kts
11-Oct-17 20:13 38.797716 -119.856189 80 16710ft 305kts
11-Oct-17 20:14 38.840776 -119.773574 9 15919ft 308kts
11-Oct-17 20:15 38.921338 -119.770428 357 14987ft 306kts
11-Oct-17 20:16 39.001076 -119.770149 355 13805ft 299kts
11-Oct-17 20:17 39.079035 -119.770244 356 12547ft 282kts
11-Oct-17 20:18 39.148596 -119.769924 357 11620ft 272kts
11-Oct-17 20:19 39.215147 -119.769727 356 10593ft 255kts
11-Oct-17 20:20 39.274838 -119.769556 356 9861ft 177kts
11-Oct-17 20:21 39.319477 -119.769484 355 8337ft 156kts
11-Oct-17 20:22 39.353585 -119.769316 355 8304ft 144kts
11-Oct-17 20:23 39.389429 -119.769867 353 7469ft 159kts
11-Oct-17 20:24 39.423892 -119.769294 353 5668ft 132kts
11-Oct-17 20:25 39.455662 -119.769411 349 5012ft 129kts
11-Oct-17 20:26 39.485309 -119.769278 352 4458ft 126kts
11-Oct-17 20:27 39.497357 -119.770459 269 4404ft 0kts
11-Oct-17 20:28 39.497356 -119.773736 271 4407ft 23kts

Navigation Log

Ident Type
Flight plan parsing failed, navigation log unavailable